Terminal Aerodrome Forecast
Issued by NWS Omaha/Valley, NE

Home | Current Version | Previous Version | Graphics & Text | Print | Product List | Glossary On
Versions: 1 2 3 4 5 6 7 8 9 10 11 12 13 14 15 16 17 18 19 20
000
FTUS43 KOAX 222321
TAFOFK
TAF
KOFK 222321Z 2300/2324 16018G28KT P6SM SCT050
     FM230100 15015G23KT P6SM SCT035 BKN250
     FM230800 17014G23KT P6SM -SHRA SCT015 OVC035 PROB30 2309/2314
      4SM TSRA OVC015CB
     FM231400 18010KT 6SM BR OVC015
     FM231600 19010KT P6SM OVC025=

USA.gov is the U.S. government's official web portal to all federal, state and local government web resources and services.